Terminal Aerodrome Forecast
Issued by NWS

Home | Current Version | Previous Version | Text Only | Print | Product List | Glossary On
Versions: 1 2 3 4 5 6 7 8 9 10 11 12 13 14 15
000
FTUS46 KHNX 270527
TAFMER
TAF
KMER 270527Z 2706/2806 VRB03KT P6SM SKC
     FM270900 00000KT 5SM BR SKC
     FM271800 VRB03KT P6SM FEW250
     FM280100 00000KT 4SM BR BKN250=

USA.gov is the U.S. government's official web portal to all federal, state and local government web resources and services.